sensor_id;sensor_type;location;lat;lon;timestamp;pressure;altitude;pressure_sealevel;temperature;humidity
32875;BME280;40468;42.128;24.750;2023-04-15T00:00:22;98939.66;;;13.45;62.16
32875;BME280;40468;42.128;24.750;2023-04-15T00:01:57;98937.84;;;13.45;62.06
32875;BME280;40468;42.128;24.750;2023-04-15T00:03:29;98944.03;;;13.44;62.22
32875;BME280;40468;42.128;24.750;2023-04-15T00:05:04;98936.50;;;13.39;62.21
32875;BME280;40468;42.128;24.750;2023-04-15T00:06:36;98935.16;;;13.34;62.45
32875;BME280;40468;42.128;24.750;2023-04-15T00:08:07;98925.13;;;13.28;62.27
32875;BME280;40468;42.128;24.750;2023-04-15T00:09:40;98923.03;;;13.20;62.47
32875;BME280;40468;42.128;24.750;2023-04-15T00:11:12;98927.53;;;13.18;62.51
32875;BME280;40468;42.128;24.750;2023-04-15T00:12:44;98924.41;;;13.13;62.93
32875;BME280;40468;42.128;24.750;2023-04-15T00:14:15;98933.72;;;13.17;62.93
32875;BME280;40468;42.128;24.750;2023-04-15T00:15:47;98941.78;;;13.14;62.85
32875;BME280;40468;42.128;24.750;2023-04-15T00:17:18;98956.09;;;13.08;63.10
32875;BME280;40468;42.128;24.750;2023-04-15T00:18:51;98953.91;;;13.02;63.19
32875;BME280;40468;42.128;24.750;2023-04-15T00:20:22;98955.03;;;12.98;63.12
32875;BME280;40468;42.128;24.750;2023-04-15T00:21:54;98960.47;;;12.95;63.39
32875;BME280;40468;42.128;24.750;2023-04-15T00:23:26;98954.75;;;12.90;63.35
32875;BME280;40468;42.128;24.750;2023-04-15T00:24:58;98965.00;;;12.93;63.66
32875;BME280;40468;42.128;24.750;2023-04-15T00:26:30;98958.91;;;12.92;63.61
32875;BME280;40468;42.128;24.750;2023-04-15T00:28:01;98955.47;;;12.92;63.84
32875;BME280;40468;42.128;24.750;2023-04-15T00:29:33;98967.47;;;12.94;63.86
32875;BME280;40468;42.128;24.750;2023-04-15T00:31:05;98955.78;;;12.87;63.58
32875;BME280;40468;42.128;24.750;2023-04-15T00:32:37;98961.94;;;12.86;64.00
32875;BME280;40468;42.128;24.750;2023-04-15T00:34:11;98953.47;;;12.83;64.07
32875;BME280;40468;42.128;24.750;2023-04-15T00:35:43;98945.75;;;12.81;64.21
32875;BME280;40468;42.128;24.750;2023-04-15T00:37:14;98937.91;;;12.81;64.22
32875;BME280;40468;42.128;24.750;2023-04-15T00:38:46;98924.53;;;12.73;64.04
32875;BME280;40468;42.128;24.750;2023-04-15T00:40:18;98932.78;;;12.80;64.29
32875;BME280;40468;42.128;24.750;2023-04-15T00:41:54;98944.59;;;12.85;64.37
32875;BME280;40468;42.128;24.750;2023-04-15T00:43:25;98942.81;;;12.86;64.09
32875;BME280;40468;42.128;24.750;2023-04-15T00:44:57;98940.31;;;12.84;64.29
32875;BME280;40468;42.128;24.750;2023-04-15T00:46:29;98940.31;;;12.84;64.37
32875;BME280;40468;42.128;24.750;2023-04-15T00:48:02;98941.38;;;12.82;64.01
32875;BME280;40468;42.128;24.750;2023-04-15T00:49:35;98949.19;;;12.82;64.31
32875;BME280;40468;42.128;24.750;2023-04-15T00:51:07;98952.84;;;12.79;64.46
32875;BME280;40468;42.128;24.750;2023-04-15T00:52:40;98945.97;;;12.78;64.78
32875;BME280;40468;42.128;24.750;2023-04-15T00:54:12;98942.81;;;12.73;64.86
32875;BME280;40468;42.128;24.750;2023-04-15T00:55:44;98942.28;;;12.68;64.83
32875;BME280;40468;42.128;24.750;2023-04-15T00:57:16;98949.91;;;12.71;64.94
32875;BME280;40468;42.128;24.750;2023-04-15T00:58:50;98951.81;;;12.69;64.87
32875;BME280;40468;42.128;24.750;2023-04-15T01:00:22;98944.69;;;12.58;64.64
32875;BME280;40468;42.128;24.750;2023-04-15T01:01:54;98939.56;;;12.57;65.32
32875;BME280;40468;42.128;24.750;2023-04-15T01:03:26;98943.75;;;12.59;65.04
32875;BME280;40468;42.128;24.750;2023-04-15T01:05:00;98917.22;;;12.52;65.15
32875;BME280;40468;42.128;24.750;2023-04-15T01:06:32;98900.28;;;12.45;65.14
32875;BME280;40468;42.128;24.750;2023-04-15T01:08:04;98930.59;;;12.61;65.24
32875;BME280;40468;42.128;24.750;2023-04-15T01:09:36;98933.09;;;12.62;65.09
32875;BME280;40468;42.128;24.750;2023-04-15T01:11:08;98923.47;;;12.63;65.25
32875;BME280;40468;42.128;24.750;2023-04-15T01:12:41;98925.03;;;12.52;65.04
32875;BME280;40468;42.128;24.750;2023-04-15T01:14:12;98936.44;;;12.51;65.09
32875;BME280;40468;42.128;24.750;2023-04-15T01:15:44;98927.13;;;12.47;64.60
32875;BME280;40468;42.128;24.750;2023-04-15T01:17:16;98934.88;;;12.49;64.76
32875;BME280;40468;42.128;24.750;2023-04-15T01:18:48;98945.59;;;12.44;64.40
32875;BME280;40468;42.128;24.750;2023-04-15T01:20:23;98947.59;;;12.41;64.71
32875;BME280;40468;42.128;24.750;2023-04-15T01:21:55;98951.22;;;12.38;64.65
32875;BME280;40468;42.128;24.750;2023-04-15T01:23:27;98952.91;;;12.39;64.38
32875;BME280;40468;42.128;24.750;2023-04-15T01:25:03;98939.63;;;12.29;64.38
32875;BME280;40468;42.128;24.750;2023-04-15T01:26:39;98962.50;;;12.39;64.41
32875;BME280;40468;42.128;24.750;2023-04-15T01:28:11;98970.25;;;12.40;64.41
32875;BME280;40468;42.128;24.750;2023-04-15T01:29:43;98964.09;;;12.41;64.16
32875;BME280;40468;42.128;24.750;2023-04-15T01:31:16;98967.53;;;12.42;64.13
32875;BME280;40468;42.128;24.750;2023-04-15T01:32:48;98957.94;;;12.42;63.77
32875;BME280;40468;42.128;24.750;2023-04-15T01:34:19;98956.16;;;12.43;63.75
32875;BME280;40468;42.128;24.750;2023-04-15T01:35:51;98956.25;;;12.41;63.79
32875;BME280;40468;42.128;24.750;2023-04-15T01:37:23;98957.94;;;12.42;63.75
32875;BME280;40468;42.128;24.750;2023-04-15T01:38:56;98958.88;;;12.41;63.23
32875;BME280;40468;42.128;24.750;2023-04-15T01:40:28;98958.13;;;12.39;63.00
32875;BME280;40468;42.128;24.750;2023-04-15T01:42:00;98948.63;;;12.38;63.23
32875;BME280;40468;42.128;24.750;2023-04-15T01:43:32;98951.00;;;12.28;63.14
32875;BME280;40468;42.128;24.750;2023-04-15T01:45:04;98952.13;;;12.24;62.67
32875;BME280;40468;42.128;24.750;2023-04-15T01:46:36;98962.50;;;12.26;62.40
32875;BME280;40468;42.128;24.750;2023-04-15T01:48:08;98962.69;;;12.23;62.31
32875;BME280;40468;42.128;24.750;2023-04-15T01:49:39;98963.84;;;12.19;62.29
32875;BME280;40468;42.128;24.750;2023-04-15T01:51:11;98962.47;;;12.13;62.22
32875;BME280;40468;42.128;24.750;2023-04-15T01:52:43;98966.19;;;12.09;62.39
32875;BME280;40468;42.128;24.750;2023-04-15T01:54:16;98961.69;;;11.98;62.19
32875;BME280;40468;42.128;24.750;2023-04-15T01:55:48;98973.78;;;11.99;62.28
32875;BME280;40468;42.128;24.750;2023-04-15T01:57:22;98976.47;;;11.98;62.44
32875;BME280;40468;42.128;24.750;2023-04-15T01:58:54;98984.41;;;11.96;62.19
32875;BME280;40468;42.128;24.750;2023-04-15T02:00:26;98989.72;;;11.95;62.40
32875;BME280;40468;42.128;24.750;2023-04-15T02:01:58;98995.03;;;11.93;61.94
32875;BME280;40468;42.128;24.750;2023-04-15T02:03:31;98999.72;;;11.88;62.14
32875;BME280;40468;42.128;24.750;2023-04-15T02:05:02;98992.91;;;11.86;62.21
32875;BME280;40468;42.128;24.750;2023-04-15T02:06:35;98998.41;;;11.81;61.95
32875;BME280;40468;42.128;24.750;2023-04-15T02:08:07;99003.06;;;11.76;62.22
32875;BME280;40468;42.128;24.750;2023-04-15T02:09:39;99009.41;;;11.72;62.28
32875;BME280;40468;42.128;24.750;2023-04-15T02:11:12;99007.09;;;11.67;61.96
32875;BME280;40468;42.128;24.750;2023-04-15T02:12:46;98999.56;;;11.63;62.25
32875;BME280;40468;42.128;24.750;2023-04-15T02:14:17;98988.56;;;11.57;61.99
32875;BME280;40468;42.128;24.750;2023-04-15T02:15:49;98996.41;;;11.57;62.09
32875;BME280;40468;42.128;24.750;2023-04-15T02:17:22;98986.16;;;11.54;62.01
32875;BME280;40468;42.128;24.750;2023-04-15T02:18:53;98994.34;;;11.48;62.40
32875;BME280;40468;42.128;24.750;2023-04-15T02:20:25;98998.81;;;11.46;62.25
32875;BME280;40468;42.128;24.750;2023-04-15T02:21:57;98993.03;;;11.41;62.14
32875;BME280;40468;42.128;24.750;2023-04-15T02:23:29;98993.22;;;11.38;62.14
32875;BME280;40468;42.128;24.750;2023-04-15T02:25:01;98984.69;;;11.36;62.01
32875;BME280;40468;42.128;24.750;2023-04-15T02:26:32;98992.50;;;11.36;62.36
32875;BME280;40468;42.128;24.750;2023-04-15T02:28:05;98990.81;;;11.35;62.12
32875;BME280;40468;42.128;24.750;2023-04-15T02:29:37;99005.63;;;11.34;61.96
32875;BME280;40468;42.128;24.750;2023-04-15T02:31:08;98992.97;;;11.28;62.05
32875;BME280;40468;42.128;24.750;2023-04-15T02:32:40;98983.28;;;11.30;62.35
32875;BME280;40468;42.128;24.750;2023-04-15T02:34:14;98987.66;;;11.30;62.09
32875;BME280;40468;42.128;24.750;2023-04-15T02:35:46;98977.31;;;11.28;62.20
32875;BME280;40468;42.128;24.750;2023-04-15T02:37:18;98979.09;;;11.28;62.38
32875;BME280;40468;42.128;24.750;2023-04-15T02:38:49;98978.34;;;11.26;62.12
32875;BME280;40468;42.128;24.750;2023-04-15T02:40:21;98978.34;;;11.26;62.28
32875;BME280;40468;42.128;24.750;2023-04-15T02:41:53;98983.75;;;11.23;62.09
32875;BME280;40468;42.128;24.750;2023-04-15T02:43:26;98984.69;;;11.22;62.16
32875;BME280;40468;42.128;24.750;2023-04-15T02:44:57;98990.63;;;11.24;62.15
32875;BME280;40468;42.128;24.750;2023-04-15T02:46:29;98977.06;;;11.19;61.77
32875;BME280;40468;42.128;24.750;2023-04-15T02:48:01;98995.09;;;11.22;62.10
32875;BME280;40468;42.128;24.750;2023-04-15T02:49:35;99002.09;;;11.21;61.79
32875;BME280;40468;42.128;24.750;2023-04-15T02:51:14;99002.19;;;11.20;61.52
32875;BME280;40468;42.128;24.750;2023-04-15T02:52:46;99006.63;;;11.18;61.87
32875;BME280;40468;42.128;24.750;2023-04-15T02:54:18;99004.03;;;11.18;61.65
32875;BME280;40468;42.128;24.750;2023-04-15T02:55:52;99004.03;;;11.18;61.68
32875;BME280;40468;42.128;24.750;2023-04-15T02:57:23;99003.19;;;11.17;61.65
32875;BME280;40468;42.128;24.750;2023-04-15T02:58:56;99003.13;;;11.19;61.88
32875;BME280;40468;42.128;24.750;2023-04-15T03:00:28;98999.94;;;11.13;61.64
32875;BME280;40468;42.128;24.750;2023-04-15T03:02:00;99012.72;;;11.18;61.83
32875;BME280;40468;42.128;24.750;2023-04-15T03:03:32;99008.34;;;11.19;61.83
32875;BME280;40468;42.128;24.750;2023-04-15T03:05:04;98995.56;;;11.14;61.56
32875;BME280;40468;42.128;24.750;2023-04-15T03:06:35;98997.91;;;11.19;62.00
32875;BME280;40468;42.128;24.750;2023-04-15T03:08:07;98988.38;;;11.18;61.80
32875;BME280;40468;42.128;24.750;2023-04-15T03:09:39;98989.34;;;11.16;61.74
32875;BME280;40468;42.128;24.750;2023-04-15T03:11:10;98980.41;;;11.06;61.79
32875;BME280;40468;42.128;24.750;2023-04-15T03:12:43;98991.38;;;11.11;61.84
32875;BME280;40468;42.128;24.750;2023-04-15T03:14:16;98996.41;;;11.14;62.04
32875;BME280;40468;42.128;24.750;2023-04-15T03:15:48;98990.66;;;11.09;61.99
32875;BME280;40468;42.128;24.750;2023-04-15T03:17:20;99007.66;;;11.15;61.97
32875;BME280;40468;42.128;24.750;2023-04-15T03:18:52;99015.56;;;11.13;61.94
32875;BME280;40468;42.128;24.750;2023-04-15T03:20:24;99016.69;;;11.09;62.29
32875;BME280;40468;42.128;24.750;2023-04-15T03:21:55;99013.53;;;11.04;62.10
32875;BME280;40468;42.128;24.750;2023-04-15T03:23:27;99023.56;;;11.10;62.41
32875;BME280;40468;42.128;24.750;2023-04-15T03:24:58;99033.25;;;11.08;62.16
32875;BME280;40468;42.128;24.750;2023-04-15T03:26:30;99023.47;;;11.12;62.51
32875;BME280;40468;42.128;24.750;2023-04-15T03:28:02;99020.97;;;11.10;62.36
32875;BME280;40468;42.128;24.750;2023-04-15T03:29:35;99019.19;;;11.11;61.97
32875;BME280;40468;42.128;24.750;2023-04-15T03:31:07;99016.97;;;11.05;61.96
32875;BME280;40468;42.128;24.750;2023-04-15T03:32:39;99027.19;;;11.08;62.28
32875;BME280;40468;42.128;24.750;2023-04-15T03:34:11;99032.22;;;11.11;62.24
32875;BME280;40468;42.128;24.750;2023-04-15T03:35:41;99028.88;;;11.09;62.13
32875;BME280;40468;42.128;24.750;2023-04-15T03:37:13;99041.06;;;11.08;62.38
32875;BME280;40468;42.128;24.750;2023-04-15T03:38:45;99051.41;;;11.10;62.06
32875;BME280;40468;42.128;24.750;2023-04-15T03:40:16;99061.00;;;11.09;62.17
32875;BME280;40468;42.128;24.750;2023-04-15T03:41:48;99060.41;;;11.04;62.12
32875;BME280;40468;42.128;24.750;2023-04-15T03:43:19;99069.25;;;11.02;62.18
32875;BME280;40468;42.128;24.750;2023-04-15T03:44:52;99071.78;;;11.03;62.08
32875;BME280;40468;42.128;24.750;2023-04-15T03:46:24;99071.94;;;11.00;62.17
32875;BME280;40468;42.128;24.750;2023-04-15T03:47:56;99071.09;;;11.00;62.34
32875;BME280;40468;42.128;24.750;2023-04-15T03:49:28;99069.44;;;10.99;62.25
32875;BME280;40468;42.128;24.750;2023-04-15T03:50:59;99066.81;;;10.99;62.29
32875;BME280;40468;42.128;24.750;2023-04-15T03:52:30;99066.19;;;10.95;62.47
32875;BME280;40468;42.128;24.750;2023-04-15T03:54:02;99071.38;;;10.95;62.36
32875;BME280;40468;42.128;24.750;2023-04-15T03:55:34;99075.84;;;10.93;62.25
32875;BME280;40468;42.128;24.750;2023-04-15T03:57:05;99077.69;;;10.91;62.16
32875;BME280;40468;42.128;24.750;2023-04-15T03:58:37;99076.00;;;10.90;62.12
32875;BME280;40468;42.128;24.750;2023-04-15T04:00:09;99083.06;;;10.88;62.13
32875;BME280;40468;42.128;24.750;2023-04-15T04:01:41;99085.97;;;10.83;62.43
32875;BME280;40468;42.128;24.750;2023-04-15T04:03:13;99089.28;;;10.85;62.13
32875;BME280;40468;42.128;24.750;2023-04-15T04:04:44;99092.84;;;10.84;62.52
32875;BME280;40468;42.128;24.750;2023-04-15T04:06:16;99097.28;;;10.82;62.36
32875;BME280;40468;42.128;24.750;2023-04-15T04:07:48;99085.13;;;10.83;62.33
32875;BME280;40468;42.128;24.750;2023-04-15T04:09:20;99083.34;;;10.83;62.46
32875;BME280;40468;42.128;24.750;2023-04-15T04:10:51;99065.84;;;10.71;62.27
32875;BME280;40468;42.128;24.750;2023-04-15T04:12:23;99079.41;;;10.76;62.11
32875;BME280;40468;42.128;24.750;2023-04-15T04:13:55;99085.47;;;10.77;62.28
32875;BME280;40468;42.128;24.750;2023-04-15T04:15:28;99089.00;;;10.76;62.15
32875;BME280;40468;42.128;24.750;2023-04-15T04:17:00;99093.53;;;10.72;62.53
32875;BME280;40468;42.128;24.750;2023-04-15T04:18:32;99096.16;;;10.72;62.10
32875;BME280;40468;42.128;24.750;2023-04-15T04:20:05;99091.00;;;10.70;62.30
32875;BME280;40468;42.128;24.750;2023-04-15T04:21:37;99100.69;;;10.68;62.08
32875;BME280;40468;42.128;24.750;2023-04-15T04:23:09;99093.06;;;10.65;61.95
32875;BME280;40468;42.128;24.750;2023-04-15T04:24:41;99093.06;;;10.65;62.21
32875;BME280;40468;42.128;24.750;2023-04-15T04:26:13;99100.09;;;10.63;61.93
32875;BME280;40468;42.128;24.750;2023-04-15T04:27:45;99094.41;;;10.57;61.71
32875;BME280;40468;42.128;24.750;2023-04-15T04:29:15;99088.53;;;10.53;62.00
32875;BME280;40468;42.128;24.750;2023-04-15T04:30:49;99093.66;;;10.55;62.03
32875;BME280;40468;42.128;24.750;2023-04-15T04:32:21;99096.44;;;10.52;61.91
32875;BME280;40468;42.128;24.750;2023-04-15T04:33:52;99084.75;;;10.43;61.95
32875;BME280;40468;42.128;24.750;2023-04-15T04:35:24;99096.78;;;10.45;61.91
32875;BME280;40468;42.128;24.750;2023-04-15T04:36:56;99098.63;;;10.43;62.17
32875;BME280;40468;42.128;24.750;2023-04-15T04:38:28;99102.22;;;10.41;62.13
32875;BME280;40468;42.128;24.750;2023-04-15T04:40:00;99102.31;;;10.39;62.21
32875;BME280;40468;42.128;24.750;2023-04-15T04:41:32;99105.00;;;10.38;62.06
32875;BME280;40468;42.128;24.750;2023-04-15T04:43:04;99108.69;;;10.34;61.84
32875;BME280;40468;42.128;24.750;2023-04-15T04:44:36;99120.94;;;10.32;62.06
32875;BME280;40468;42.128;24.750;2023-04-15T04:46:09;99121.88;;;10.31;61.97
32875;BME280;40468;42.128;24.750;2023-04-15T04:47:41;99123.81;;;10.27;61.95
32875;BME280;40468;42.128;24.750;2023-04-15T04:49:12;99110.19;;;10.22;61.78
32875;BME280;40468;42.128;24.750;2023-04-15T04:50:44;99111.94;;;10.21;62.08
32875;BME280;40468;42.128;24.750;2023-04-15T04:52:16;99109.53;;;10.18;61.98
32875;BME280;40468;42.128;24.750;2023-04-15T04:53:48;99103.38;;;10.19;61.92
32875;BME280;40468;42.128;24.750;2023-04-15T04:55:20;99111.19;;;10.19;62.27
32875;BME280;40468;42.128;24.750;2023-04-15T04:56:52;99112.03;;;10.20;61.88
32875;BME280;40468;42.128;24.750;2023-04-15T04:58:24;99120.69;;;10.20;62.17
32875;BME280;40468;42.128;24.750;2023-04-15T04:59:56;99115.38;;;10.22;62.26
32875;BME280;40468;42.128;24.750;2023-04-15T05:01:28;99112.59;;;10.27;62.24
32875;BME280;40468;42.128;24.750;2023-04-15T05:03:00;99113.44;;;10.25;62.31
32875;BME280;40468;42.128;24.750;2023-04-15T05:04:32;99108.22;;;10.27;62.34
32875;BME280;40468;42.128;24.750;2023-04-15T05:06:04;99109.97;;;10.27;61.91
32875;BME280;40468;42.128;24.750;2023-04-15T05:07:36;99098.94;;;10.21;62.16
32875;BME280;40468;42.128;24.750;2023-04-15T05:09:08;99110.72;;;10.29;62.16
32875;BME280;40468;42.128;24.750;2023-04-15T05:10:40;99111.25;;;10.35;61.98
32875;BME280;40468;42.128;24.750;2023-04-15T05:12:12;99116.34;;;10.37;62.15
32875;BME280;40468;42.128;24.750;2023-04-15T05:13:44;99115.22;;;10.41;62.39
32875;BME280;40468;42.128;24.750;2023-04-15T05:15:16;99113.84;;;10.35;62.33
32875;BME280;40468;42.128;24.750;2023-04-15T05:16:49;99117.59;;;10.45;62.17
32875;BME280;40468;42.128;24.750;2023-04-15T05:18:21;99122.13;;;10.42;62.02
32875;BME280;40468;42.128;24.750;2023-04-15T05:19:53;99113.41;;;10.43;62.16
32875;BME280;40468;42.128;24.750;2023-04-15T05:21:25;99115.47;;;10.52;62.21
32875;BME280;40468;42.128;24.750;2023-04-15T05:22:57;99109.19;;;10.56;62.40
32875;BME280;40468;42.128;24.750;2023-04-15T05:24:28;99112.38;;;10.61;62.47
32875;BME280;40468;42.128;24.750;2023-04-15T05:26:01;99114.72;;;10.66;62.37
32875;BME280;40468;42.128;24.750;2023-04-15T05:27:32;99111.84;;;10.70;62.56
32875;BME280;40468;42.128;24.750;2023-04-15T05:29:04;99098.81;;;10.70;62.21
32875;BME280;40468;42.128;24.750;2023-04-15T05:30:36;99112.66;;;10.87;62.45
32875;BME280;40468;42.128;24.750;2023-04-15T05:32:10;99127.19;;;11.21;61.99
32875;BME280;40468;42.128;24.750;2023-04-15T05:33:41;99130.13;;;11.45;61.85
32875;BME280;40468;42.128;24.750;2023-04-15T05:35:13;99141.69;;;11.70;61.21
32875;BME280;40468;42.128;24.750;2023-04-15T05:36:45;99138.63;;;11.92;61.01
32875;BME280;40468;42.128;24.750;2023-04-15T05:38:17;99103.88;;;11.91;60.37
32875;BME280;40468;42.128;24.750;2023-04-15T05:39:49;99147.81;;;12.40;59.84
32875;BME280;40468;42.128;24.750;2023-04-15T05:41:21;99142.16;;;12.61;58.85
32875;BME280;40468;42.128;24.750;2023-04-15T05:42:58;99149.25;;;12.86;58.46
32875;BME280;40468;42.128;24.750;2023-04-15T05:44:30;99153.06;;;13.07;57.41
32875;BME280;40468;42.128;24.750;2023-04-15T05:46:01;99154.41;;;13.27;56.95
32875;BME280;40468;42.128;24.750;2023-04-15T05:47:35;99165.31;;;13.47;56.40
32875;BME280;40468;42.128;24.750;2023-04-15T05:49:07;99149.00;;;13.56;55.60
32875;BME280;40468;42.128;24.750;2023-04-15T05:50:39;99153.91;;;13.73;55.10
32875;BME280;40468;42.128;24.750;2023-04-15T05:52:11;99167.50;;;14.04;54.54
32875;BME280;40468;42.128;24.750;2023-04-15T05:53:43;99162.16;;;14.18;54.41
32875;BME280;40468;42.128;24.750;2023-04-15T05:55:15;99171.13;;;14.27;53.81
32875;BME280;40468;42.128;24.750;2023-04-15T05:56:47;99131.69;;;14.04;53.53
32875;BME280;40468;42.128;24.750;2023-04-15T05:58:19;99165.53;;;14.44;53.11
32875;BME280;40468;42.128;24.750;2023-04-15T05:59:51;99162.69;;;14.60;53.02
32875;BME280;40468;42.128;24.750;2023-04-15T06:01:23;99161.34;;;14.78;52.49
32875;BME280;40468;42.128;24.750;2023-04-15T06:02:57;99155.25;;;14.91;52.13
32875;BME280;40468;42.128;24.750;2023-04-15T06:04:29;99160.78;;;15.10;51.38
32875;BME280;40468;42.128;24.750;2023-04-15T06:06:02;99171.59;;;15.30;51.01
32875;BME280;40468;42.128;24.750;2023-04-15T06:07:34;99165.53;;;15.40;50.83
32875;BME280;40468;42.128;24.750;2023-04-15T06:09:06;99166.28;;;15.54;50.60
32875;BME280;40468;42.128;24.750;2023-04-15T06:10:38;99167.38;;;15.62;50.27
32875;BME280;40468;42.128;24.750;2023-04-15T06:12:10;99172.44;;;15.77;49.96
32875;BME280;40468;42.128;24.750;2023-04-15T06:13:42;99174.47;;;15.84;49.89
32875;BME280;40468;42.128;24.750;2023-04-15T06:15:14;99171.84;;;15.96;49.57
32875;BME280;40468;42.128;24.750;2023-04-15T06:16:46;99168.75;;;16.02;49.37
32875;BME280;40468;42.128;24.750;2023-04-15T06:18:19;99172.44;;;16.10;49.22
32875;BME280;40468;42.128;24.750;2023-04-15T06:19:51;99172.34;;;16.12;48.87
32875;BME280;40468;42.128;24.750;2023-04-15T06:21:25;99179.84;;;16.17;49.02
32875;BME280;40468;42.128;24.750;2023-04-15T06:22:57;99188.22;;;16.22;48.94
32875;BME280;40468;42.128;24.750;2023-04-15T06:24:28;99187.16;;;16.24;48.49
32875;BME280;40468;42.128;24.750;2023-04-15T06:26:02;99185.00;;;16.18;48.61
32875;BME280;40468;42.128;24.750;2023-04-15T06:27:34;99192.88;;;16.18;48.41
32875;BME280;40468;42.128;24.750;2023-04-15T06:29:06;99185.81;;;16.19;48.44
32875;BME280;40468;42.128;24.750;2023-04-15T06:30:38;99186.75;;;16.18;48.53
32875;BME280;40468;42.128;24.750;2023-04-15T06:32:09;99186.75;;;16.18;48.45
32875;BME280;40468;42.128;24.750;2023-04-15T06:33:43;99182.13;;;16.10;48.38
32875;BME280;40468;42.128;24.750;2023-04-15T06:35:15;99190.13;;;16.20;48.44
32875;BME280;40468;42.128;24.750;2023-04-15T06:36:47;99194.31;;;16.22;48.24
32875;BME280;40468;42.128;24.750;2023-04-15T06:38:19;99185.34;;;16.25;48.42
32875;BME280;40468;42.128;24.750;2023-04-15T06:39:51;99184.84;;;16.31;48.32
32875;BME280;40468;42.128;24.750;2023-04-15T06:41:23;99166.00;;;16.26;48.36
32875;BME280;40468;42.128;24.750;2023-04-15T06:42:55;99186.28;;;16.46;48.36
32875;BME280;40468;42.128;24.750;2023-04-15T06:44:27;99195.22;;;16.55;48.05
32875;BME280;40468;42.128;24.750;2023-04-15T06:46:00;99161.44;;;16.39;48.00
32875;BME280;40468;42.128;24.750;2023-04-15T06:47:31;99192.94;;;16.61;48.05
32875;BME280;40468;42.128;24.750;2023-04-15T06:49:05;99186.50;;;16.66;47.89
32875;BME280;40468;42.128;24.750;2023-04-15T06:50:37;99178.59;;;16.66;48.10
32875;BME280;40468;42.128;24.750;2023-04-15T06:52:09;99189.47;;;16.72;48.05
32875;BME280;40468;42.128;24.750;2023-04-15T06:53:42;99191.25;;;16.72;48.21
32875;BME280;40468;42.128;24.750;2023-04-15T06:55:14;99191.13;;;16.73;48.32
32875;BME280;40468;42.128;24.750;2023-04-15T06:56:46;99193.63;;;16.75;48.52
32875;BME280;40468;42.128;24.750;2023-04-15T06:58:18;99189.22;;;16.75;48.69
32875;BME280;40468;42.128;24.750;2023-04-15T06:59:50;99191.47;;;16.80;48.87
32875;BME280;40468;42.128;24.750;2023-04-15T07:01:23;99190.88;;;16.88;49.04
32875;BME280;40468;42.128;24.750;2023-04-15T07:02:56;99195.38;;;16.97;48.81
32875;BME280;40468;42.128;24.750;2023-04-15T07:04:29;99189.75;;;17.01;48.70
32875;BME280;40468;42.128;24.750;2023-04-15T07:06:02;99198.81;;;17.09;48.44
32875;BME280;40468;42.128;24.750;2023-04-15T07:07:36;99198.31;;;17.15;48.46
32875;BME280;40468;42.128;24.750;2023-04-15T07:09:08;99195.06;;;17.22;48.52
32875;BME280;40468;42.128;24.750;2023-04-15T07:10:40;99195.59;;;17.37;48.52
32875;BME280;40468;42.128;24.750;2023-04-15T07:12:12;99196.47;;;17.47;48.55
32875;BME280;40468;42.128;24.750;2023-04-15T07:13:44;99200.41;;;17.53;48.57
32875;BME280;40468;42.128;24.750;2023-04-15T07:15:16;99207.66;;;17.61;48.59
32875;BME280;40468;42.128;24.750;2023-04-15T07:16:47;99203.81;;;17.65;48.63
32875;BME280;40468;42.128;24.750;2023-04-15T07:18:20;99199.97;;;17.69;48.55
32875;BME280;40468;42.128;24.750;2023-04-15T07:19:53;99192.00;;;17.80;48.62
32875;BME280;40468;42.128;24.750;2023-04-15T07:21:25;99197.19;;;17.91;48.76
32875;BME280;40468;42.128;24.750;2023-04-15T07:22:57;99199.22;;;18.09;48.55
32875;BME280;40468;42.128;24.750;2023-04-15T07:24:29;99204.59;;;18.28;48.18
32875;BME280;40468;42.128;24.750;2023-04-15T07:26:04;99208.25;;;18.47;47.90
32875;BME280;40468;42.128;24.750;2023-04-15T07:27:36;99204.44;;;18.60;47.63
32875;BME280;40468;42.128;24.750;2023-04-15T07:29:08;99210.53;;;18.71;47.41
32875;BME280;40468;42.128;24.750;2023-04-15T07:30:40;99214.38;;;18.88;47.59
32875;BME280;40468;42.128;24.750;2023-04-15T07:32:12;99214.53;;;19.05;47.25
32875;BME280;40468;42.128;24.750;2023-04-15T07:33:44;99223.25;;;19.25;47.13
32875;BME280;40468;42.128;24.750;2023-04-15T07:35:17;99218.16;;;19.43;46.69
32875;BME280;40468;42.128;24.750;2023-04-15T07:36:50;99206.03;;;19.50;46.21
32875;BME280;40468;42.128;24.750;2023-04-15T07:38:23;99210.06;;;19.64;46.07
32875;BME280;40468;42.128;24.750;2023-04-15T07:39:55;99202.28;;;19.72;45.82
32875;BME280;40468;42.128;24.750;2023-04-15T07:41:27;99204.59;;;19.95;45.66
32875;BME280;40468;42.128;24.750;2023-04-15T07:42:58;99199.97;;;20.07;45.26
32875;BME280;40468;42.128;24.750;2023-04-15T07:44:30;99199.75;;;20.28;44.87
32875;BME280;40468;42.128;24.750;2023-04-15T07:46:03;99199.25;;;20.42;44.25
32875;BME280;40468;42.128;24.750;2023-04-15T07:47:35;99149.41;;;20.19;44.39
32875;BME280;40468;42.128;24.750;2023-04-15T07:49:07;99200.41;;;20.67;44.10
32875;BME280;40468;42.128;24.750;2023-04-15T07:50:41;99175.06;;;20.64;43.58
32875;BME280;40468;42.128;24.750;2023-04-15T07:52:13;99198.47;;;20.87;42.75
32875;BME280;40468;42.128;24.750;2023-04-15T07:53:45;99195.69;;;20.88;42.18
32875;BME280;40468;42.128;24.750;2023-04-15T07:55:18;99197.34;;;20.89;42.17
32875;BME280;40468;42.128;24.750;2023-04-15T07:56:52;99201.63;;;20.90;41.96
32875;BME280;40468;42.128;24.750;2023-04-15T07:58:24;99204.16;;;20.92;41.83
32875;BME280;40468;42.128;24.750;2023-04-15T07:59:56;99204.00;;;20.94;41.81
32875;BME280;40468;42.128;24.750;2023-04-15T08:01:28;99201.50;;;20.92;41.39